Time;durP1;ratioP1;P1;durP2;ratioP2;P2;SDS_P1;SDS_P2;PMS_P1;PMS_P2;Temp;Humidity;BMP_temperature;BMP_pressure;BME280_temperature;BME280_humidity;BME280_pressure;Samples;Min_cycle;Max_cycle;Signal;HPM_P1;HPM_P2
2022/07/28 00:02:20;;;;;;;19.10;6.77;;;;;;;10.76;100.00;101317.34;7384428;19;20417;-55
2022/07/28 00:04:50;;;;;;;55.23;29.03;;;;;;;10.83;100.00;101291.06;7391493;19;20397;-56
2022/07/28 00:07:22;;;;;;;57.47;31.73;;;;;;;11.26;100.00;101288.75;7383795;19;20419;-54
2022/07/28 00:09:52;;;;;;;22.70;14.00;;;;;;;11.67;100.00;101227.78;7391935;19;20749;-56
2022/07/28 00:12:28;;;;;;;8.10;2.40;;;;;;;11.12;100.00;101139.22;7385463;19;20417;-54
2022/07/28 00:14:58;;;;;;;9.83;5.10;;;;;;;11.15;100.00;101128.16;7391010;19;20402;-56
2022/07/28 00:17:27;;;;;;;15.00;7.13;;;;;;;11.23;100.00;101126.78;7382533;19;20968;-53
2022/07/28 00:19:57;;;;;;;8.57;2.87;;;;;;;11.22;100.00;101109.53;7396340;19;20413;-56
2022/07/28 00:22:29;;;;;;;8.00;2.40;;;;;;;10.97;100.00;101110.13;7384430;19;20485;-55
2022/07/28 00:24:59;;;;;;;5.63;2.23;;;;;;;10.69;100.00;101126.91;7390910;19;20384;-56
2022/07/28 00:27:28;;;;;;;8.17;2.97;;;;;;;10.45;100.00;101153.31;7384836;19;20444;-56
2022/07/28 00:29:58;;;;;;;7.80;2.83;;;;;;;10.26;100.00;101179.03;7389440;19;20457;-56
2022/07/28 00:32:27;;;;;;;8.60;2.10;;;;;;;10.34;100.00;101197.47;7384607;19;20417;-55
2022/07/28 00:34:57;;;;;;;7.03;2.20;;;;;;;10.12;100.00;101213.56;7397349;19;20738;-57
2022/07/28 00:37:29;;;;;;;8.43;2.27;;;;;;;10.15;100.00;101300.50;7388991;19;20773;-59
2022/07/28 00:39:59;;;;;;;8.23;2.63;;;;;;;10.17;100.00;101311.78;7398406;19;20389;-58
2022/07/28 00:42:28;;;;;;;12.70;3.80;;;;;;;10.11;100.00;101313.22;7391813;19;20415;-55
2022/07/28 00:44:58;;;;;;;13.60;3.37;;;;;;;10.05;100.00;101318.06;7397864;19;20402;-56
2022/07/28 00:47:27;;;;;;;7.60;2.20;;;;;;;10.05;100.00;101320.63;7389597;19;20969;-56
2022/07/28 00:50:03;;;;;;;6.40;2.50;;;;;;;10.03;100.00;101321.34;7398141;19;20380;-54
2022/07/28 00:52:35;;;;;;;26.77;6.43;;;;;;;9.82;100.00;101342.63;7391437;19;20429;-55
2022/07/28 00:55:06;;;;;;;6.70;2.70;;;;;;;9.69;100.00;101339.38;7400064;19;20748;-55
2022/07/28 00:57:36;;;;;;;5.80;2.30;;;;;;;9.62;100.00;101385.31;7389855;19;20430;-57
2022/07/28 01:00:06;;;;;;;7.10;2.70;;;;;;;9.63;100.00;101389.69;7397638;19;20908;-55
2022/07/28 01:02:36;;;;;;;9.83;3.10;;;;;;;9.67;100.00;101395.09;7391118;19;20417;-55
2022/07/28 01:05:06;;;;;;;7.23;2.63;;;;;;;9.72;100.00;101395.34;7396816;19;20932;-52
2022/07/28 01:07:45;;;;;;;12.30;2.70;;;;;;;9.77;100.00;101388.75;7390311;19;20496;-56
2022/07/28 01:10:21;;;;;;;5.57;2.40;;;;;;;9.68;100.00;101383.06;7397387;19;20458;-56
2022/07/28 01:12:57;;;;;;;6.17;2.53;;;;;;;9.94;100.00;101393.97;7390732;19;20428;-54
2022/07/28 01:15:29;;;;;;;7.60;2.87;;;;;;;9.90;100.00;101384.28;7388125;19;20416;-55
2022/07/28 01:18:05;;;;;;;9.37;1.80;;;;;;;9.90;100.00;101386.84;7389323;19;20419;-53
2022/07/28 01:20:38;;;;;;;7.80;2.00;;;;;;;9.61;100.00;101378.38;7401645;19;20375;-56
2022/07/28 01:23:29;;;;;;;5.47;2.63;;;;;;;9.40;100.00;101394.41;7390884;19;20421;-55
2022/07/28 01:26:13;;;;;;;7.10;2.33;;;;;;;9.40;100.00;101408.19;7395305;19;20420;-54
2022/07/28 01:28:56;;;;;;;4.60;2.13;;;;;;;9.39;100.00;101420.97;7390455;19;20982;-51
2022/07/28 01:31:30;;;;;;;7.13;2.97;;;;;;;9.25;100.00;101436.53;7396319;19;20815;-54
2022/07/28 01:34:01;;;;;;;10.80;2.63;;;;;;;9.21;100.00;101452.59;7395195;19;20416;-53
2022/07/28 01:36:33;;;;;;;5.57;2.50;;;;;;;9.17;100.00;101482.41;7389732;19;20396;-56
2022/07/28 01:39:03;;;;;;;9.60;3.50;;;;;;;9.22;100.00;101508.44;7394398;19;20719;-50
2022/07/28 01:41:34;;;;;;;5.90;2.90;;;;;;;9.25;100.00;101528.34;7390636;19;20743;-56
2022/07/28 01:44:08;;;;;;;9.13;2.57;;;;;;;9.32;100.00;101548.50;7394449;19;20395;-57
2022/07/28 01:46:40;;;;;;;6.97;2.53;;;;;;;9.57;100.00;101566.31;7385702;19;20408;-51
2022/07/28 01:49:11;;;;;;;12.87;4.20;;;;;;;9.48;100.00;101560.59;7395819;19;20392;-56
2022/07/28 01:51:41;;;;;;;9.30;2.37;;;;;;;9.42;100.00;101560.22;7390362;19;20758;-56
2022/07/28 01:54:12;;;;;;;5.87;2.67;;;;;;;9.61;100.00;101567.38;7394589;19;20384;-53
2022/07/28 01:56:43;;;;;;;6.30;2.17;;;;;;;9.52;100.00;101562.56;7392520;19;20411;-57
2022/07/28 01:59:14;;;;;;;9.67;2.47;;;;;;;9.61;100.00;101571.63;7394303;19;20392;-58
2022/07/28 02:01:47;;;;;;;6.47;2.60;;;;;;;9.37;100.00;101582.25;7389147;19;20464;-53
2022/07/28 02:04:20;;;;;;;9.37;2.90;;;;;;;9.30;100.00;101602.50;7395608;19;20403;-52
2022/07/28 02:06:50;;;;;;;4.80;2.93;;;;;;;9.24;100.00;101638.19;7388635;19;20429;-58
2022/07/28 02:09:20;;;;;;;10.10;3.50;;;;;;;9.28;100.00;101689.06;7395491;19;20395;-51
2022/07/28 02:11:50;;;;;;;7.63;3.43;;;;;;;9.35;100.00;101710.03;7388157;19;21401;-60
2022/07/28 02:14:23;;;;;;;11.27;5.90;;;;;;;9.34;100.00;101713.44;7394774;19;21028;-58
2022/07/28 02:16:58;;;;;;;8.43;2.70;;;;;;;9.33;100.00;101725.41;7387667;19;20401;-53
2022/07/28 02:19:28;;;;;;;6.33;2.57;;;;;;;9.38;100.00;101729.16;7398177;19;20406;-52
2022/07/28 02:21:58;;;;;;;7.47;2.50;;;;;;;9.84;100.00;101735.34;7388582;19;20411;-50
2022/07/28 02:24:28;;;;;;;4.37;2.30;;;;;;;9.72;100.00;101736.41;7394800;19;20732;-54
2022/07/28 02:27:01;;;;;;;9.43;2.90;;;;;;;9.64;100.00;101721.25;7388287;19;20411;-50
2022/07/28 02:29:33;;;;;;;7.10;2.30;;;;;;;9.68;100.00;101720.63;7394635;19;20388;-55
2022/07/28 02:32:26;;;;;;;5.93;2.80;;;;;;;9.83;100.00;101719.00;7387981;19;20932;-56
2022/07/28 02:35:00;;;;;;;6.73;2.43;;;;;;;10.05;100.00;101715.13;7393360;19;20396;-56
2022/07/28 02:37:36;;;;;;;3.33;2.00;;;;;;;10.21;100.00;101704.00;7387297;19;20412;-55
2022/07/28 02:40:07;;;;;;;5.50;2.20;;;;;;;10.46;100.00;101691.69;7391299;19;20395;-54
2022/07/28 02:42:37;;;;;;;7.43;2.60;;;;;;;10.45;100.00;101665.00;7388366;19;20411;-54
2022/07/28 02:45:08;;;;;;;4.67;2.20;;;;;;;10.46;100.00;101646.13;7393699;19;20919;-56
2022/07/28 02:47:47;;;;;;;7.00;2.20;;;;;;;10.55;100.00;101625.13;7388404;19;20413;-51
2022/07/28 02:50:18;;;;;;;5.20;2.33;;;;;;;10.73;100.00;101608.88;7395568;19;20392;-49
2022/07/28 02:52:48;;;;;;;4.13;2.20;;;;;;;10.66;100.00;101590.47;7387697;19;20762;-55
2022/07/28 02:55:18;;;;;;;8.43;2.60;;;;;;;10.77;100.00;101565.22;7393096;19;20388;-54
2022/07/28 02:57:48;;;;;;;7.67;2.60;;;;;;;10.45;100.00;101536.00;7385345;19;20420;-54
2022/07/28 03:00:25;;;;;;;7.60;3.20;;;;;;;10.66;100.00;101527.63;7392303;19;20480;-50
2022/07/28 03:02:58;;;;;;;8.20;2.87;;;;;;;10.85;100.00;101511.44;7387181;19;20416;-57
2022/07/28 03:05:28;;;;;;;9.53;3.47;;;;;;;10.70;100.00;101479.66;7392954;19;20407;-50
2022/07/28 03:07:58;;;;;;;12.67;3.57;;;;;;;10.51;100.00;101477.00;7386628;19;20407;-53
2022/07/28 03:10:29;;;;;;;7.50;2.70;;;;;;;10.59;100.00;101481.66;7393712;19;20389;-57
2022/07/28 03:13:04;;;;;;;6.87;2.90;;;;;;;10.48;100.00;101473.34;7387602;19;20416;-53
2022/07/28 03:15:33;;;;;;;7.37;2.70;;;;;;;10.13;100.00;101471.50;7392309;19;20928;-57
2022/07/28 03:18:06;;;;;;;5.60;2.60;;;;;;;10.13;100.00;101515.34;7386803;19;20396;-56
2022/07/28 03:20:36;;;;;;;8.53;2.53;;;;;;;10.49;100.00;101531.88;7391960;19;20460;-58
2022/07/28 03:23:06;;;;;;;6.30;2.30;;;;;;;10.65;100.00;101529.34;7386277;19;20416;-58
2022/07/28 03:25:40;;;;;;;13.23;4.20;;;;;;;10.86;100.00;101514.94;7395847;19;20406;-58
2022/07/28 03:28:12;;;;;;;9.37;3.83;;;;;;;10.55;100.00;101490.94;7386767;19;20417;-53
2022/07/28 03:30:44;;;;;;;8.37;4.00;;;;;;;10.13;100.00;101486.06;7393319;19;20383;-54
2022/07/28 03:33:17;;;;;;;4.97;2.40;;;;;;;9.83;100.00;101525.69;7386655;19;20419;-52
2022/07/28 03:35:49;;;;;;;6.40;3.53;;;;;;;9.72;100.00;101571.47;7391489;19;20427;-52
2022/07/28 03:38:22;;;;;;;18.03;2.60;;;;;;;9.65;100.00;101614.81;7385246;19;20415;-55
2022/07/28 03:40:54;;;;;;;10.27;4.10;;;;;;;9.83;100.00;101645.94;7391177;19;20743;-56
2022/07/28 03:43:26;;;;;;;36.40;17.83;;;;;;;10.43;100.00;101655.38;7386110;19;20979;-48
2022/07/28 03:45:56;;;;;;;11.00;5.60;;;;;;;10.56;100.00;101639.78;7390867;19;20436;-55
2022/07/28 03:48:33;;;;;;;10.87;4.00;;;;;;;10.34;100.00;101617.03;7385870;19;20491;-51
2022/07/28 03:51:03;;;;;;;7.83;2.30;;;;;;;9.89;100.00;101637.69;7392715;19;20401;-52
2022/07/28 03:53:32;;;;;;;12.87;3.07;;;;;;;9.69;100.00;101660.59;7385613;19;20413;-54
2022/07/28 03:56:02;;;;;;;11.40;2.80;;;;;;;9.68;100.00;101684.56;7390566;19;20405;-56
2022/07/28 03:58:32;;;;;;;12.17;6.10;;;;;;;10.50;100.00;101719.44;7389394;19;20468;-54
2022/07/28 04:01:02;;;;;;;13.77;5.80;;;;;;;10.97;100.00;101698.81;7390664;19;20388;-60
2022/07/28 04:03:34;;;;;;;12.23;3.70;;;;;;;11.41;100.00;101643.50;7385027;19;20414;-57
2022/07/28 04:06:12;;;;;;;6.70;3.60;;;;;;;11.63;100.00;101576.50;7390932;19;20418;-55
2022/07/28 04:08:42;;;;;;;13.30;3.33;;;;;;;11.16;100.00;101518.22;7386668;19;20437;-53
2022/07/28 04:11:12;;;;;;;7.13;3.50;;;;;;;11.35;100.00;101499.34;7399506;19;21008;-54
2022/07/28 04:13:41;;;;;;;6.33;2.50;;;;;;;11.50;100.00;101456.13;7392896;19;20421;-55
2022/07/28 04:16:11;;;;;;;4.03;2.47;;;;;;;11.69;100.00;101420.00;7397147;19;20534;-59
2022/07/28 04:18:43;;;;;;;11.67;2.50;;;;;;;11.90;100.00;101380.50;7392914;19;20424;-53
2022/07/28 04:21:12;;;;;;;5.83;2.77;;;;;;;12.02;100.00;101334.47;7396913;19;20390;-51
2022/07/28 04:23:42;;;;;;;11.30;2.70;;;;;;;12.35;100.00;101285.91;7392171;19;20419;-57
2022/07/28 04:26:12;;;;;;;8.13;2.23;;;;;;;12.35;100.00;101240.22;7396860;19;20437;-54
2022/07/28 04:28:42;;;;;;;4.80;2.43;;;;;;;12.34;100.00;101216.84;7391460;19;20422;-57
2022/07/28 04:31:11;;;;;;;5.97;2.50;;;;;;;12.38;100.00;101208.41;7398946;19;21226;-53
2022/07/28 04:33:45;;;;;;;5.60;2.40;;;;;;;11.89;100.00;101201.19;7390970;19;20411;-56
2022/07/28 04:36:16;;;;;;;5.43;2.80;;;;;;;12.24;100.00;101211.31;7396542;19;20415;-53
2022/07/28 04:38:45;;;;;;;5.90;2.70;;;;;;;12.53;100.00;101188.34;7391956;19;20411;-52
2022/07/28 04:41:15;;;;;;;6.53;3.53;;;;;;;12.66;100.00;101170.69;7396456;19;20552;-56
2022/07/28 04:43:44;;;;;;;18.03;11.07;;;;;;;12.36;100.00;101166.06;7391518;19;20444;-58
2022/07/28 04:46:14;;;;;;;21.23;12.50;;;;;;;11.82;100.00;101185.34;7400477;19;20429;-53
2022/07/28 04:48:46;;;;;;;4.60;2.10;;;;;;;11.52;100.00;101209.00;7391849;19;20478;-57
2022/07/28 04:51:16;;;;;;;6.43;2.30;;;;;;;11.11;100.00;101265.69;7398252;19;20784;-53
2022/07/28 04:53:46;;;;;;;5.40;2.20;;;;;;;10.90;100.00;101311.22;7390685;19;20422;-51
2022/07/28 04:56:15;;;;;;;4.30;2.00;;;;;;;10.85;100.00;101353.06;7395996;19;20953;-59
2022/07/28 04:58:45;;;;;;;8.07;3.10;;;;;;;10.83;100.00;101384.00;7391209;19;20412;-57
2022/07/28 05:01:16;;;;;;;5.10;2.07;;;;;;;10.80;100.00;101405.38;7396025;19;20469;-53
2022/07/28 05:03:48;;;;;;;6.27;2.53;;;;;;;10.86;100.00;101432.31;7390746;19;20418;-57
2022/07/28 05:06:18;;;;;;;8.13;2.80;;;;;;;10.92;100.00;101436.09;7396030;19;21046;-50
2022/07/28 05:08:48;;;;;;;14.03;8.63;;;;;;;11.21;100.00;101449.59;7391062;19;20418;-52
2022/07/28 05:11:18;;;;;;;9.50;3.53;;;;;;;11.26;100.00;101441.16;7397615;19;20397;-54
2022/07/28 05:13:47;;;;;;;6.63;2.50;;;;;;;11.16;100.00;101429.50;7390403;19;20418;-55
2022/07/28 05:16:17;;;;;;;6.57;2.27;;;;;;;11.12;100.00;101428.47;7395160;19;20417;-50
2022/07/28 05:18:49;;;;;;;5.77;1.90;;;;;;;11.20;100.00;101421.09;7390817;19;20438;-58
2022/07/28 05:21:19;;;;;;;11.70;6.57;;;;;;;11.44;100.00;101421.41;7393053;19;20390;-55
2022/07/28 05:23:51;;;;;;;7.77;2.63;;;;;;;11.55;100.00;101408.13;7390249;19;20417;-57
2022/07/28 05:26:20;;;;;;;5.90;2.20;;;;;;;11.52;100.00;101400.22;7395751;19;20414;-56
2022/07/28 05:28:50;;;;;;;5.40;1.80;;;;;;;11.56;100.00;101399.56;7392726;19;20546;-53
2022/07/28 05:31:19;;;;;;;9.33;1.90;;;;;;;11.66;100.00;101394.03;7396711;19;20400;-54
2022/07/28 05:33:52;;;;;;;5.70;2.13;;;;;;;11.74;100.00;101397.84;7390161;19;20436;-49
2022/07/28 05:36:21;;;;;;;9.23;3.47;;;;;;;11.80;100.00;101393.78;7395326;19;20427;-55
2022/07/28 05:38:51;;;;;;;7.73;1.93;;;;;;;12.10;100.00;101383.13;7389312;19;20419;-50
2022/07/28 05:41:21;;;;;;;15.40;4.60;;;;;;;12.28;100.00;101352.91;7395064;19;20383;-59
2022/07/28 05:43:50;;;;;;;5.83;2.13;;;;;;;12.33;100.00;101318.59;7389127;19;20423;-57
2022/07/28 05:46:20;;;;;;;4.13;1.57;;;;;;;12.29;100.00;101284.84;7394999;19;20770;-53
2022/07/28 05:48:52;;;;;;;3.80;1.40;;;;;;;12.34;100.00;101266.91;7390423;19;20415;-51
2022/07/28 05:51:21;;;;;;;4.23;2.00;;;;;;;12.37;100.00;101271.34;7396325;19;20725;-57
2022/07/28 05:53:51;;;;;;;10.67;2.23;;;;;;;12.36;100.00;101272.16;7390755;19;20435;-52
2022/07/28 05:56:21;;;;;;;5.57;1.87;;;;;;;12.37;100.00;101271.34;7394646;19;20942;-56
2022/07/28 05:58:51;;;;;;;5.70;2.07;;;;;;;12.39;100.00;101273.16;7389854;19;20421;-52
2022/07/28 06:01:21;;;;;;;13.03;6.07;;;;;;;12.64;100.00;101283.66;7394800;19;20484;-55
2022/07/28 06:03:54;;;;;;;6.50;2.60;;;;;;;12.82;100.00;101281.84;7389134;19;20423;-54
2022/07/28 06:06:43;;;;;;;8.93;1.90;;;;;;;12.68;100.00;101270.03;7389124;19;20402;-57
2022/07/28 06:09:13;;;;;;;6.67;1.97;;;;;;;12.69;100.00;101258.84;7395344;19;20776;-53
2022/07/28 06:11:43;;;;;;;6.70;1.63;;;;;;;12.67;100.00;101278.63;7389252;19;20395;-51
2022/07/28 06:14:12;;;;;;;5.97;1.63;;;;;;;12.68;100.00;101286.44;7394182;19;20710;-53
2022/07/28 06:16:43;;;;;;;6.57;1.50;;;;;;;12.73;100.00;101281.47;7384789;19;20423;-55
2022/07/28 06:19:15;;;;;;;9.57;1.70;;;;;;;12.73;100.00;101278.88;7390826;19;20462;-55
2022/07/28 06:21:46;;;;;;;8.40;1.37;;;;;;;12.80;100.00;101280.91;7383780;19;20387;-59
2022/07/28 06:24:15;;;;;;;7.80;1.67;;;;;;;12.93;100.00;101271.03;7389499;19;20400;-55
2022/07/28 06:26:46;;;;;;;6.73;1.40;;;;;;;13.08;100.00;101273.34;7383143;19;20933;-53
2022/07/28 06:29:15;;;;;;;15.07;4.77;;;;;;;13.21;100.00;101267.84;7390614;19;20390;-60
2022/07/28 06:31:45;;;;;;;8.43;2.53;;;;;;;13.35;100.00;101262.28;7383212;19;20461;-55
2022/07/28 06:34:17;;;;;;;4.90;1.57;;;;;;;13.41;100.00;101261.63;7393472;19;20770;-53
2022/07/28 06:36:51;;;;;;;9.23;2.90;;;;;;;13.44;100.00;101259.19;7382442;19;20494;-54
2022/07/28 06:39:21;;;;;;;11.27;3.83;;;;;;;13.53;100.00;101264.72;7394800;19;20458;-57
2022/07/28 06:41:50;;;;;;;21.70;5.10;;;;;;;13.68;100.00;101274.78;7386880;19;20427;-52
2022/07/28 06:44:20;;;;;;;4.83;1.43;;;;;;;13.81;100.00;101281.31;7393541;19;20395;-54
2022/07/28 06:46:49;;;;;;;6.40;1.80;;;;;;;13.74;100.00;101289.72;7388030;19;20440;-59
2022/07/28 06:49:22;;;;;;;3.30;1.20;;;;;;;13.70;100.00;101287.81;7395173;19;20398;-54
2022/07/28 06:51:51;;;;;;;6.70;1.13;;;;;;;13.74;100.00;101295.75;7387329;19;20410;-52
2022/07/28 06:54:21;;;;;;;8.80;2.00;;;;;;;13.76;100.00;101309.66;7393877;19;20480;-55
2022/07/28 06:56:51;;;;;;;5.60;1.00;;;;;;;13.74;100.00;101352.81;7390310;19;20515;-57
2022/07/28 06:59:23;;;;;;;18.80;6.00;;;;;;;13.79;100.00;101350.38;7393892;19;20380;-49
2022/07/28 07:01:53;;;;;;;11.27;2.70;;;;;;;13.79;100.00;101350.38;7384804;19;20409;-52
2022/07/28 07:04:25;;;;;;;7.63;1.07;;;;;;;13.76;100.00;101234.47;7392735;19;20458;-50
2022/07/28 07:06:55;;;;;;;7.53;1.13;;;;;;;13.86;100.00;101233.09;7386390;19;20421;-58
2022/07/28 07:09:24;;;;;;;4.90;1.80;;;;;;;13.97;100.00;101224.81;7393585;19;20383;-58
2022/07/28 07:11:54;;;;;;;4.83;1.17;;;;;;;14.11;100.00;101239.13;7390253;19;20411;-56
2022/07/28 07:14:28;;;;;;;8.70;1.90;;;;;;;14.06;100.00;101235.53;7392815;19;20399;-57
2022/07/28 07:16:58;;;;;;;4.77;1.17;;;;;;;14.13;100.00;101221.94;7385766;19;20755;-56
2022/07/28 07:19:30;;;;;;;4.67;1.47;;;;;;;14.15;100.00;101222.00;7393326;19;20397;-57
2022/07/28 07:21:59;;;;;;;8.27;2.67;;;;;;;14.26;100.00;101217.16;7382838;19;20422;-56
2022/07/28 07:24:29;;;;;;;3.30;1.20;;;;;;;14.24;100.00;101229.19;7392349;19;20395;-55
2022/07/28 07:26:58;;;;;;;5.03;1.00;;;;;;;14.22;100.00;101230.84;7385556;19;20438;-55
2022/07/28 07:29:28;;;;;;;6.50;1.40;;;;;;;14.31;100.00;101231.19;7392697;19;20386;-55
2022/07/28 07:31:59;;;;;;;5.43;1.17;;;;;;;14.44;100.00;101233.34;7378518;19;20417;-53
2022/07/28 07:34:31;;;;;;;12.73;2.40;;;;;;;14.49;100.00;101235.19;7393671;19;20404;-49
2022/07/28 07:37:01;;;;;;;5.60;1.60;;;;;;;14.49;100.00;101230.91;7381346;19;20818;-52
2022/07/28 07:39:30;;;;;;;6.80;1.30;;;;;;;14.49;100.00;101242.97;7392545;19;20379;-57
2022/07/28 07:42:00;;;;;;;3.43;1.23;;;;;;;14.50;100.00;101245.63;7385942;19;20400;-55
2022/07/28 07:44:29;;;;;;;8.13;2.00;;;;;;;14.53;100.00;101252.66;7395805;19;20474;-53
2022/07/28 07:46:59;;;;;;;9.10;1.60;;;;;;;14.43;100.00;101252.38;7391407;19;20412;-57
2022/07/28 07:49:31;;;;;;;11.17;2.33;;;;;;;14.52;100.00;101250.91;7400274;19;20754;-51
2022/07/28 07:52:14;;;;;;;7.33;1.33;;;;;;;14.54;100.00;101247.53;7393664;19;20418;-53
2022/07/28 07:54:44;;;;;;;3.90;1.00;;;;;;;14.63;100.00;101259.94;7398943;19;20406;-55
2022/07/28 07:57:13;;;;;;;3.23;1.33;;;;;;;14.73;100.00;101268.91;7392337;19;20402;-58
2022/07/28 07:59:43;;;;;;;4.20;1.33;;;;;;;14.88;100.00;101270.25;7399963;19;20390;-51
2022/07/28 08:02:13;;;;;;;5.03;1.37;;;;;;;14.84;100.00;101290.06;7393755;19;20776;-53
2022/07/28 08:04:45;;;;;;;4.80;1.53;;;;;;;14.99;100.00;101274.09;7401405;19;20920;-60
2022/07/28 08:07:16;;;;;;;5.30;1.70;;;;;;;14.97;100.00;101289.63;7391907;19;20422;-60
2022/07/28 08:09:50;;;;;;;4.60;1.40;;;;;;;15.17;100.00;101304.09;7399494;19;20720;-54
2022/07/28 08:12:20;;;;;;;8.40;1.73;;;;;;;15.02;100.00;101309.69;7392528;19;20399;-54
2022/07/28 08:14:53;;;;;;;5.17;1.40;;;;;;;15.17;100.00;101294.56;7398811;19;20538;-58
2022/07/28 08:17:23;;;;;;;3.87;1.43;;;;;;;15.19;100.00;101313.72;7390434;19;20417;-54
2022/07/28 08:19:57;;;;;;;9.97;1.33;;;;;;;15.37;100.00;101312.50;7399276;19;20394;-60
2022/07/28 08:22:26;;;;;;;11.67;5.03;;;;;;;15.61;100.00;101303.69;7392619;19;20421;-53
2022/07/28 08:24:56;;;;;;;10.90;3.90;;;;;;;15.90;100.00;101312.31;7398281;19;20391;-59
2022/07/28 08:27:25;;;;;;;3.87;1.63;;;;;;;15.95;100.00;101338.53;7388650;19;20415;-55
2022/07/28 08:29:55;;;;;;;4.80;1.10;;;;;;;15.58;100.00;101343.47;7398819;19;20400;-56
2022/07/28 08:32:25;;;;;;;4.47;1.13;;;;;;;15.39;100.00;101357.63;7391326;19;20415;-57
2022/07/28 08:34:57;;;;;;;5.93;1.43;;;;;;;15.43;100.00;101353.41;7396203;19;20383;-56
2022/07/28 08:37:46;;;;;;;4.93;1.10;;;;;;;15.40;100.00;101349.00;7391959;19;20428;-57
2022/07/28 08:40:16;;;;;;;8.67;2.70;;;;;;;15.55;100.00;101343.41;7398272;19;20386;-56
2022/07/28 08:42:51;;;;;;;8.87;2.90;;;;;;;15.79;100.00;101358.84;7389344;19;21001;-57
2022/07/28 08:45:22;;;;;;;5.93;1.17;;;;;;;15.75;100.00;101359.59;7397168;19;20392;-53
2022/07/28 08:47:52;;;;;;;3.23;1.10;;;;;;;15.89;100.00;101343.53;7391275;19;20433;-53
2022/07/28 08:50:39;;;;;;;6.73;2.27;;;;;;;15.52;100.00;101358.88;7397889;19;20398;-52
2022/07/28 08:53:09;;;;;;;4.20;1.00;;;;;;;15.44;100.00;101356.03;7392562;19;20445;-53
2022/07/28 08:55:39;;;;;;;3.33;1.13;;;;;;;15.48;100.00;101364.84;7394638;19;20425;-50
2022/07/28 08:58:09;;;;;;;4.83;1.33;;;;;;;15.48;100.00;101364.84;7391915;19;20413;-57
2022/07/28 09:00:38;;;;;;;3.33;1.10;;;;;;;15.46;100.00;101359.59;7397256;19;20406;-56
2022/07/28 09:03:08;;;;;;;19.47;11.70;;;;;;;15.57;100.00;101351.22;7389106;19;20783;-56
2022/07/28 09:05:42;;;;;;;48.67;11.90;;;;;;;16.02;100.00;101358.69;7396475;19;20496;-56
2022/07/28 09:08:12;;;;;;;9.00;2.83;;;;;;;15.80;100.00;101384.03;7391114;19;20774;-57
2022/07/28 09:10:42;;;;;;;5.57;2.57;;;;;;;16.22;100.00;101355.75;7397117;19;20401;-56
2022/07/28 09:13:12;;;;;;;15.00;3.57;;;;;;;15.98;100.00;101359.41;7390089;19;20435;-53
2022/07/28 09:15:43;;;;;;;9.13;1.97;;;;;;;16.22;100.00;101373.09;7395918;19;20439;-53
2022/07/28 09:18:13;;;;;;;7.80;1.33;;;;;;;16.02;100.00;101400.31;7391042;19;20783;-56
2022/07/28 09:20:46;;;;;;;8.63;4.67;;;;;;;16.00;100.00;101382.91;7394570;19;20381;-53
2022/07/28 09:23:16;;;;;;;5.73;2.57;;;;;;;16.28;100.00;101379.38;7389958;19;20452;-56
2022/07/28 09:26:08;;;;;;;4.90;1.60;;;;;;;16.32;100.00;101390.75;7395358;19;20430;-58
2022/07/28 09:28:48;;;;;;;5.20;1.67;;;;;;;16.39;100.00;101391.78;7389786;19;20412;-57
2022/07/28 09:31:19;;;;;;;6.90;2.13;;;;;;;16.35;100.00;101388.22;7400653;19;20459;-54
2022/07/28 09:33:56;;;;;;;2.70;1.10;;;;;;;16.17;100.00;101418.13;7390527;19;20429;-55
2022/07/28 09:36:28;;;;;;;4.63;1.90;;;;;;;16.37;100.00;101402.19;7395023;19;20426;-57
2022/07/28 09:38:58;;;;;;;7.53;1.10;;;;;;;16.42;100.00;101408.38;7394974;19;20421;-58
2022/07/28 09:41:28;;;;;;;10.10;1.50;;;;;;;16.49;100.00;101414.66;7396491;19;20388;-58
2022/07/28 09:43:57;;;;;;;3.30;1.17;;;;;;;16.21;100.00;101424.28;7393049;19;20422;-51
2022/07/28 09:46:27;;;;;;;4.60;1.30;;;;;;;16.46;100.00;101404.16;7395024;19;20421;-59
2022/07/28 09:48:59;;;;;;;10.73;2.80;;;;;;;16.54;100.00;101423.47;7399594;19;20522;-57
2022/07/28 09:51:34;;;;;;;3.90;1.20;;;;;;;16.86;100.00;101419.97;7396286;19;20375;-58
2022/07/28 09:54:12;;;;;;;16.33;5.00;;;;;;;16.43;100.00;101425.78;7393995;19;20411;-54
2022/07/28 09:56:44;;;;;;;4.03;1.13;;;;;;;16.71;100.00;101416.13;7387778;19;20429;-53
2022/07/28 09:59:16;;;;;;;7.00;1.87;;;;;;;16.63;100.00;101416.75;7395909;19;20391;-57
2022/07/28 10:01:54;;;;;;;7.47;1.87;;;;;;;16.81;100.00;101412.03;7390085;19;20764;-58
2022/07/28 10:04:32;;;;;;;8.93;2.30;;;;;;;16.63;100.00;101448.00;7396865;19;20736;-57
2022/07/28 10:07:08;;;;;;;27.47;17.13;;;;;;;16.45;100.00;101444.03;7386487;19;20736;-53
2022/07/28 10:09:38;;;;;;;9.70;4.70;;;;;;;16.49;100.00;101442.41;7392310;19;20415;-57
2022/07/28 10:12:18;;;;;;;27.93;16.40;;;;;;;16.65;100.00;101435.91;7385333;19;20418;-59
2022/07/28 10:14:49;;;;;;;13.37;5.20;;;;;;;16.58;100.00;101430.53;7391575;19;21007;-59
2022/07/28 10:17:30;;;;;;;10.53;1.30;;;;;;;16.42;100.00;101436.16;7384848;19;20422;-58
2022/07/28 10:20:03;;;;;;;12.33;4.73;;;;;;;16.16;100.00;101433.69;7392575;19;20403;-53
2022/07/28 10:22:37;;;;;;;5.50;1.90;;;;;;;16.30;100.00;101445.38;7386168;19;20415;-56
2022/07/28 10:25:13;;;;;;;11.53;1.30;;;;;;;16.51;100.00;101423.38;7391578;19;20394;-54
2022/07/28 10:27:44;;;;;;;4.87;1.53;;;;;;;16.38;100.00;101426.47;7386875;19;20752;-56
2022/07/28 10:30:15;;;;;;;4.83;1.10;;;;;;;16.72;100.00;101422.22;7392548;19;20379;-58
2022/07/28 10:32:46;;;;;;;6.67;1.77;;;;;;;16.57;100.00;101415.72;7385877;19;20411;-54
2022/07/28 10:35:16;;;;;;;3.10;1.10;;;;;;;16.79;100.00;101408.50;7391018;19;20439;-56
2022/07/28 10:37:53;;;;;;;6.13;1.37;;;;;;;16.96;100.00;101402.84;7385144;19;20942;-56
2022/07/28 10:40:26;;;;;;;6.03;1.20;;;;;;;16.83;100.00;101415.53;7392738;19;20910;-54
2022/07/28 10:42:56;;;;;;;3.57;1.30;;;;;;;17.11;100.00;101421.53;7384240;19;20407;-56
2022/07/28 10:45:26;;;;;;;2.60;0.90;;;;;;;17.44;100.00;101430.16;7391300;19;20418;-55
2022/07/28 10:48:16;;;;;;;4.83;1.00;;;;;;;17.86;100.00;101444.16;7385781;19;20406;-52
2022/07/28 10:50:46;;;;;;;9.70;1.03;;;;;;;18.12;100.00;101443.88;7391749;19;20398;-53
2022/07/28 10:53:26;;;;;;;4.63;0.80;;;;;;;18.15;100.00;101446.53;7388811;19;20546;-59
2022/07/28 10:56:00;;;;;;;3.57;1.13;;;;;;;18.20;100.00;101450.13;7390754;19;20449;-54
2022/07/28 10:58:38;;;;;;;3.30;0.90;;;;;;;18.10;100.00;101460.34;7384815;19;20409;-51
2022/07/28 11:01:10;;;;;;;3.20;0.80;;;;;;;17.96;100.00;101460.91;7390364;19;20942;-58
2022/07/28 11:04:00;;;;;;;8.47;1.00;;;;;;;17.68;100.00;101481.13;7389088;19;20450;-53
2022/07/28 11:06:32;;;;;;;6.53;1.23;;;;;;;17.78;100.00;101477.00;7393487;19;20441;-58
2022/07/28 11:09:24;;;;;;;4.23;1.23;;;;;;;17.67;100.00;101459.38;7392964;19;20773;-55
2022/07/28 11:11:56;;;;;;;4.40;1.10;;;;;;;17.90;100.00;101460.75;7389052;19;20392;-60
2022/07/28 11:14:37;;;;;;;9.40;1.93;;;;;;;17.86;100.00;101475.47;7392955;19;20387;-58
2022/07/28 11:17:22;;;;;;;3.73;1.10;;;;;;;17.75;100.00;101479.56;7384610;19;20403;-58
2022/07/28 11:20:04;;;;;;;5.90;1.23;;;;;;;17.56;100.00;101492.16;7395351;19;20439;-55
2022/07/28 11:22:54;;;;;;;3.20;1.07;;;;;;;17.86;100.00;101480.69;7385864;19;20427;-55
2022/07/28 11:25:27;;;;;;;2.90;0.80;;;;;;;18.02;100.00;101481.94;7390810;19;20390;-54
2022/07/28 11:28:03;;;;;;;4.20;1.47;;;;;;;17.59;100.00;101480.91;7385365;19;20411;-55
2022/07/28 11:30:51;;;;;;;5.70;1.10;;;;;;;17.28;100.00;101474.09;7392886;19;20387;-56
2022/07/28 11:33:23;;;;;;;8.03;1.60;;;;;;;17.30;100.00;101473.25;7388320;19;20454;-51
2022/07/28 11:36:01;;;;;;;6.37;2.27;;;;;;;17.18;100.00;101471.22;7391469;19;20411;-54
2022/07/28 11:38:30;;;;;;;6.20;1.60;;;;;;;17.42;100.00;101468.34;7385836;19;20959;-57
2022/07/28 11:41:02;;;;;;;5.20;2.13;;;;;;;17.53;100.00;101474.69;7392665;19;20379;-58